createdAt,value
2022-08-19T00:05:34.440Z,6.6
2022-08-19T00:11:26.955Z,6.3
2022-08-19T00:17:10.871Z,6.4
2022-08-19T00:22:54.509Z,6.2
2022-08-19T00:28:37.994Z,6.3
2022-08-19T00:34:21.622Z,6.4
2022-08-19T00:40:06.308Z,6.5
2022-08-19T00:45:50.649Z,6.2
2022-08-19T00:51:34.110Z,6.3
2022-08-19T00:57:19.855Z,6.3
2022-08-19T01:03:03.250Z,6.6
2022-08-19T01:08:47.395Z,6.1
2022-08-19T01:14:33.549Z,6.6
2022-08-19T01:20:21.190Z,6.5
2022-08-19T01:26:05.870Z,6.9
2022-08-19T01:31:51.411Z,6.8
2022-08-19T01:37:40.882Z,6.7
2022-08-19T01:43:24.122Z,6.6
2022-08-19T01:49:08.254Z,6.3
2022-08-19T01:54:51.661Z,6.4
2022-08-19T02:00:35.295Z,7
2022-08-19T02:06:18.620Z,6.6
2022-08-19T02:12:07.205Z,6.8
2022-08-19T02:17:51.720Z,6.9
2022-08-19T02:23:34.925Z,6.7
2022-08-19T02:29:18.740Z,6.6
2022-08-19T02:35:02.230Z,6.9
2022-08-19T02:40:57.250Z,7
2022-08-19T02:46:40.655Z,7.4
2022-08-19T02:52:25.182Z,7.7
2022-08-19T02:58:10.084Z,7.4
2022-08-19T03:03:53.633Z,7.4
2022-08-19T03:09:39.144Z,8
2022-08-19T03:15:22.471Z,8.2
2022-08-19T03:21:06.011Z,8.1
2022-08-19T03:26:55.983Z,8.3
2022-08-19T03:32:46.472Z,8
2022-08-19T03:38:40.531Z,7.9
2022-08-19T03:44:25.290Z,7.7
2022-08-19T03:50:09.131Z,7.2
2022-08-19T03:55:52.449Z,6.9
2022-08-19T04:01:37.553Z,6.9
2022-08-19T04:07:22.463Z,6.8
2022-08-19T04:13:05.829Z,6.7
2022-08-19T04:18:50.115Z,6.5
2022-08-19T04:24:33.826Z,7.6
2022-08-19T04:30:19.018Z,7.4
2022-08-19T04:36:02.373Z,7
2022-08-19T04:41:45.674Z,6.7
2022-08-19T04:47:47.244Z,7.6
2022-08-19T04:53:39.627Z,8.6
2022-08-19T04:59:23.517Z,8.5
2022-08-19T05:05:08.613Z,8
2022-08-19T05:10:53.195Z,8
2022-08-19T05:16:36.755Z,11
2022-08-19T05:22:20.199Z,10.1
2022-08-19T05:28:03.482Z,9.8
2022-08-19T05:33:46.983Z,9.7
2022-08-19T05:39:32.689Z,9.7
2022-08-19T05:45:16.459Z,9.5
2022-08-19T05:50:59.666Z,9.2
2022-08-19T05:56:45.035Z,8.4
2022-08-19T06:02:28.923Z,7.7
2022-08-19T06:08:13.739Z,7.7
2022-08-19T06:14:01.927Z,6.4
2022-08-19T06:19:45.391Z,6.7
2022-08-19T06:25:32.367Z,5.4
2022-08-19T06:31:17.231Z,5.2
2022-08-19T06:37:02.553Z,4.8
2022-08-19T06:42:56.572Z,4.9
2022-08-19T06:48:47.719Z,4.8
2022-08-19T06:54:44.618Z,3.9
2022-08-19T07:06:44.969Z,3.8
2022-08-19T07:12:24.476Z,4.2
2022-08-19T07:18:13.647Z,4.5
2022-08-19T07:23:57.318Z,4.1
2022-08-19T07:29:40.654Z,4.4
2022-08-19T07:35:24.029Z,4.4
2022-08-19T07:41:07.704Z,4.4
2022-08-19T07:46:55.198Z,4.7
2022-08-19T07:52:38.702Z,4.2
2022-08-19T07:58:23.334Z,4.6
2022-08-19T08:04:09.130Z,4.2
2022-08-19T08:15:44.768Z,4
2022-08-19T08:21:30.126Z,3.6
2022-08-19T08:27:14.366Z,3.2
2022-08-19T08:33:05.252Z,3.7
2022-08-19T08:38:49.119Z,3.2
2022-08-19T08:44:37.964Z,3.4
2022-08-19T08:50:30.162Z,4.1
2022-08-19T08:56:16.856Z,4.2
2022-08-19T09:02:01.459Z,2.2
2022-08-19T09:07:52.770Z,2.1
2022-08-19T09:13:41.542Z,2.6
2022-08-19T09:19:25.499Z,3
2022-08-19T09:25:13.139Z,3.1
2022-08-19T09:30:57.555Z,7.8
2022-08-19T09:36:42.293Z,6.3
2022-08-19T09:42:35.689Z,6.2
2022-08-19T09:48:24.635Z,5.2
2022-08-19T09:54:13.191Z,4.7
2022-08-19T10:00:02.813Z,4.6
2022-08-19T10:05:49.442Z,4.2
2022-08-19T10:11:53.969Z,4
2022-08-19T10:17:38.595Z,4
2022-08-19T10:23:35.482Z,4.4
2022-08-19T10:29:33.180Z,3.8
2022-08-19T10:35:23.023Z,3.5
2022-08-19T10:41:16.588Z,3.4
2022-08-19T10:47:01.658Z,3.2
2022-08-19T10:52:51.822Z,2.9
2022-08-19T10:58:39.266Z,2.8
2022-08-19T11:04:30.570Z,2.4
2022-08-19T11:10:21.724Z,2.3
2022-08-19T11:16:09.731Z,2.1
2022-08-19T11:22:01.114Z,1.8
2022-08-19T11:27:46.587Z,1.9
2022-08-19T11:33:31.246Z,1.8
2022-08-19T11:39:16.758Z,1.8
2022-08-19T11:44:59.926Z,1.8
2022-08-19T11:50:43.383Z,1.6
2022-08-19T11:56:27.237Z,1.5
2022-08-19T12:02:10.654Z,1.6
2022-08-19T12:07:56.189Z,1.4
2022-08-19T12:13:39.885Z,1.6
2022-08-19T12:19:24.439Z,1.5
2022-08-19T12:25:08.663Z,1.5
2022-08-19T12:30:55.729Z,1.4
2022-08-19T12:36:40.686Z,1.4
2022-08-19T12:42:24.092Z,1.2
2022-08-19T12:48:31.336Z,1.4
2022-08-19T12:54:11.034Z,1.3
2022-08-19T12:59:58.243Z,1.1
2022-08-19T13:05:42.879Z,1.1
2022-08-19T13:11:26.647Z,1.1
2022-08-19T13:17:10.547Z,1.1
2022-08-19T13:22:56.094Z,1
2022-08-19T13:28:40.014Z,1
2022-08-19T13:34:33.379Z,1.1
2022-08-19T13:40:18.536Z,1
2022-08-19T13:46:09.034Z,0.8
2022-08-19T13:51:52.488Z,0.9
2022-08-19T13:57:35.830Z,0.9
2022-08-19T14:03:19.221Z,0.8
2022-08-19T14:09:03.961Z,0.8
2022-08-19T14:14:47.185Z,0.6
2022-08-19T14:20:32.634Z,0.9
2022-08-19T14:26:18.020Z,0.6
2022-08-19T14:32:01.255Z,0.7
2022-08-19T14:37:52.018Z,0.6
2022-08-19T14:43:35.235Z,0.6
2022-08-19T14:49:20.918Z,0.6
2022-08-19T14:55:16.203Z,0.6
2022-08-19T15:01:00.825Z,0.5
2022-08-19T15:06:44.528Z,0.6
2022-08-19T15:12:28.596Z,1
2022-08-19T15:18:12.671Z,0.7
2022-08-19T15:23:56.292Z,0.7
2022-08-19T15:29:39.614Z,0.5
2022-08-19T15:35:24.758Z,0.7
2022-08-19T15:41:08.216Z,0.7
2022-08-19T15:46:52.098Z,1.1
2022-08-19T15:52:48.369Z,1.1
2022-08-19T15:58:32.654Z,1
2022-08-19T16:04:19.683Z,0.7
2022-08-19T16:10:26.726Z,0.7
2022-08-19T16:16:06.798Z,0.7
2022-08-19T16:21:51.291Z,0.8
2022-08-19T16:27:34.553Z,0.6
2022-08-19T16:33:24.234Z,0.8
2022-08-19T16:39:07.301Z,0.8
2022-08-19T16:44:50.530Z,0.8
2022-08-19T16:50:49.382Z,0.8
2022-08-19T16:56:32.810Z,1
2022-08-19T17:02:16.093Z,0.7
2022-08-19T17:07:59.317Z,0.7
2022-08-19T17:13:45.130Z,0.6
2022-08-19T17:19:31.086Z,0.6
2022-08-19T17:25:14.762Z,0.6
2022-08-19T17:30:58.510Z,0.7
2022-08-19T17:36:43.130Z,0.7
2022-08-19T17:42:26.538Z,0.7
2022-08-19T17:48:10.561Z,0.7
2022-08-19T17:53:54.590Z,0.7
2022-08-19T17:59:39.343Z,1.1
2022-08-19T18:05:23.375Z,0.9
2022-08-19T18:11:06.857Z,1.1
2022-08-19T18:16:50.618Z,1
2022-08-19T18:22:38.151Z,1.1
2022-08-19T18:28:22.535Z,1.3
2022-08-19T18:34:06.027Z,1.2
2022-08-19T18:39:50.788Z,1.3
2022-08-19T18:45:34.458Z,1.5
2022-08-19T18:51:19.566Z,1.7
2022-08-19T18:57:06.538Z,1.7
2022-08-19T19:02:49.703Z,1.9
2022-08-19T19:08:33.006Z,1.8
2022-08-19T19:14:47.984Z,2.1
2022-08-19T19:20:22.096Z,2
2022-08-19T19:26:14.087Z,1.8
2022-08-19T19:31:57.355Z,1.8
2022-08-19T19:37:40.788Z,1.5
2022-08-19T19:43:24.017Z,1.3
2022-08-19T19:49:08.571Z,1.3
2022-08-19T19:54:51.939Z,0.9
2022-08-19T20:00:36.691Z,1.1
2022-08-19T20:06:20.462Z,1
2022-08-19T20:12:03.717Z,1.1
2022-08-19T20:17:47.030Z,1
2022-08-19T20:23:30.408Z,0.9
2022-08-19T20:29:38.629Z,1.1
2022-08-19T20:35:17.552Z,1
2022-08-19T20:41:02.211Z,0.8
2022-08-19T20:46:57.630Z,0.9
2022-08-19T20:52:54.535Z,0.9
2022-08-19T20:58:37.875Z,1.1
2022-08-19T21:04:22.015Z,0.7
2022-08-19T21:10:07.053Z,1
2022-08-19T21:15:50.403Z,0.9
2022-08-19T21:21:33.742Z,1
2022-08-19T21:27:18.211Z,1
2022-08-19T21:33:02.094Z,0.8
2022-08-19T21:38:45.602Z,1
2022-08-19T21:44:29.058Z,0.8
2022-08-19T21:50:13.029Z,0.7
2022-08-19T21:55:56.337Z,0.9
2022-08-19T22:01:42.016Z,1
2022-08-19T22:07:33.527Z,1
2022-08-19T22:13:18.028Z,1
2022-08-19T22:19:01.851Z,0.9
2022-08-19T22:24:45.059Z,1
2022-08-19T22:30:34.586Z,1.1
2022-08-19T22:36:18.377Z,1.2
2022-08-19T22:42:03.184Z,1.1
2022-08-19T22:47:46.461Z,1.1
2022-08-19T22:53:29.746Z,1.3
2022-08-19T22:59:13.095Z,1
2022-08-19T23:04:56.333Z,1.1
2022-08-19T23:10:39.668Z,1.1
2022-08-19T23:16:24.259Z,1.3
2022-08-19T23:22:10.502Z,1.2
2022-08-19T23:27:58.875Z,1.4
2022-08-19T23:33:52.898Z,1.3
2022-08-19T23:39:36.695Z,1.2
2022-08-19T23:45:26.668Z,1.3
2022-08-19T23:51:12.430Z,1.1
2022-08-19T23:56:55.895Z,1.3
